48ème Rallye National de la Giraglia
Championnat de France des Rallyes 2ème Division
1 1 TROJANI Pascal/VESPERINI Jean-Noel Citroën Ds3 A 8W 1:09:05,0
2 2 NAVARRA Francois-Frederic/TYRAN Mathieu Ford Fiesta A 8W 1:09:32,2 +00:27,2 +00:27,2
3 3 ALERINI Paul/VERDURI Olivier Ford Fiesta A 8W 1:10:00,3 +00:55,3 +00:28,1
4 7 MANZAGOL Jean-Marc/PATRONE Etienne Ford Fiesta R 5 1:10:09,1 +01:04,1 +00:08,8
5 6 LEANDRI Jean-Mathieu/GORGUILO Anthony Skoda Fabia R 5 1:10:09,1 +01:04,1
6 5 SIMONETTI Robert/SIMONETTI Celia Citroën Ds3 A 8W 1:15:27,8 +06:22,8 +05:18,7
7 32 FLORI Jean-Pierre/GARCIA Dann Renault Clio Ragnotti F2 14 1:15:43,9 +06:38,9 +00:16,1
8 36 JAUMON Lionel/ROQUE Cyril Renault Clio 3 Rs F2 14 1:15:46,1 +06:41,1 +00:02,2
9 61 MICHELI Hugo/RAFFAELLI Yoann Peugeot 208 R 2 1:16:55,0 +07:50,0 +01:08,9
10 9 POLIDORI Frédéric/GOIA Laurent Ford Fiesta R 5 1:17:11,4 +08:06,4 +00:16,4
11 24 VILLARET Benjamin/OBRECHT Justine Renault Clio R3 R 3 1:17:18,3 +08:13,3 +00:06,9
12 77 GANDOLFI Anthony/FINOCCHIARO Sébastien Citroën Saxo F2 13 1:17:24,4 +08:19,4 +00:06,1
13 10 VILLORESI Christian/GIUDICELLI Cyril Skoda Fabia R 5 1:17:51,3 +08:46,3 +00:26,9
14 19 DEFENDINI Romain/GHERARDI Gérard Citroën Ds3 R 3 1:18:23,9 +09:18,9 +00:32,6
15 27 ROSSI Yannick/VOLPEI Baptiste Mitsubishi Evolution 9 N 4 1:18:26,5 +09:21,5 +00:02,6
16 63 AGOSTINI Lucien/AGOSTINI Guillaume Peugeot 208 R 2B 1:18:30,2 +09:25,2 +00:03,7
17 38 RICO Michel/RICO Benjamin BMW --- F2 14 1:19:07,6 +10:02,6 +00:37,4
18 64 MAESTRACCI François/CASANOVA Sébastien Peugeot 208 R 2 1:19:08,6 +10:03,6 +00:01,0
19 73 ARAGNEAU Philippe/MAZOTTI Francis Renault Clio FN 3 1:19:15,3 +10:10,3 +00:06,7
20 15 ROGNONI Daniel/BEAULIEU Noelise Porsche 911 GT 10 1:19:15,4 +10:10,4 +00:00,1
21 16 BONEL Antony/MANENT Roselyne Opel Speedster Turbo GT 10 1:19:23,7 +10:18,7 +00:08,3
22 85 PERETTI Myriam/SALINI Laura Peugeot 106 FA 6 1:19:24,2 +10:19,2 +00:00,5
23 54 COMOLE Lionel/DINI Gilbert Peugeot 106 S16 A 6K 1:19:24,9 +10:19,9 +00:00,7
24 60 FRAYMOUTH François/FELICELLI Romain Peugeot 208 R 2 1:19:39,9 +10:34,9 +00:15,0
25 57 BRAZ Paulo/SCICOLONE Edouard Citroën C2 FA 6K 1:20:09,3 +11:04,3 +00:29,4
26 79 FRANCISCI Yannick/VINCIGUERRA Lisa-Marie Peugeot 106 S16 F2 13 1:20:21,1 +11:16,1 +00:11,8
27 34 VANGIONI Francesco/THIERS Julien Renault Clio 3 Rs F2 14 1:20:24,0 +11:19,0 +00:02,9
28 26 BORT Julien/ZAVARSKY Alexy Renault Clio R3 Max R 3 1:20:33,2 +11:28,2 +00:09,2
29 66 ANFRIANI Paul-Etienne/RICOVERI Mallaury Citroën C2 R 2B 1:20:35,8 +11:30,8 +00:02,6
30 53 GHELARDINI Francois-Marie/ROCCA SERRA Laury Peugeot 206 Xs FA 6K 1:20:42,6 +11:37,6 +00:06,8
31 51 MARIANI Anthony/PIEVE Laura Peugeot 206 Xs FA 6K 1:20:56,9 +11:51,9 +00:14,3
32 4 MICHELI Joseph/MICHELI Luna-Stella Ford Fiesta A 8W 1:21:36,2 +12:31,2 +00:39,3
33 81 CLAUDE Christophe/DELATTRE Judicael Citroën C2 F2 13 1:21:48,8 +12:43,8 +00:12,6
34 23 AGOSTINI Quentin/BARRAL Florian Peugeot 207 Rc R 3 1:22:06,9 +13:01,9 +00:18,1
35 22 ETTORI Jean-Dominique/GUERRIERI Patrick Citroën Ds3 R 3 1:22:23,8 +13:18,8 +00:16,9
36 50 FERRARI Cédric/LAPINA Michela Peugeot 106 S16 FA 6K 1:22:29,8 +13:24,8 +00:06,0
37 55 MARTELLI Cyril/BRUN Pierre-Marie Peugeot 206 Xs FA 6K 1:22:35,0 +13:30,0 +00:05,2
38 17 ALEGRE Francis/MURATI Laura BMW 325I FA 8 1:22:49,4 +13:44,4 +00:14,4
39 67 DE MEYER Jean-Michel/FRATTI Eric Peugeot 208 R 2 1:23:49,2 +14:44,2 +00:59,8
40 49 FIGARI Luca/FIGARI Morgan Renault Clio Super 1600 FA 6K 1:23:49,4 +14:44,4 +00:00,2
41 89 NAPOLI MELIO Michaël/BERNARDI Dominique Citroën C2 FA 6 1:23:58,4 +14:53,4 +00:09,0
42 98 NEGRI Jean-Michel/NEGRI Michel Peugeot 106 S16 FN 2 1:24:14,9 +15:09,9 +00:16,5
43 95 BERNOUS Bouchta/MARTINI Andrea Citroën Saxo Vts FN 2 1:24:43,1 +15:38,1 +00:28,2
44 28 AGOSTINI Anthony/ROYER Jérôme Renault Megane N 4 1:24:47,5 +15:42,5 +00:04,4
45 30 LAUZERTE Alain/BARBE Isabelle Renault Megane N 4 1:25:00,1 +15:55,1 +00:12,6
46 93 MARIINI Michaël/REAL Thibaut Citroën Saxo Vts FN 2 1:25:16,0 +16:11,0 +00:15,9
47 105 NICOLI Gérard/GALTIERI Marie-Flore Citroën Ax Sport FN 1 1:27:19,9 +18:14,9 +02:03,9
48 56 BALESTRACCI Stéphanie/CHIAPPE Patrick Peugeot 206 Xs FA 6K 1:27:55,2 +18:50,2 +00:35,3
49 80 DIFEO José/DIFEO Julien Citroën C2 F2 13 1:28:58,7 +19:53,7 +01:03,5
50 104 BIAGGI Florian/ESCACH Matthieu Peugeot 106 S16 N 2S 1:31:17,9 +22:12,9 +02:19,2
51 102 TROMBI Philippe/NICOLAI Michaël Peugeot 106 Xsi F2 12 1:33:52,3 +24:47,3 +02:34,4
52 70 FABRA Jérémy/PONTIER Numa Renault Clio 16S FA 7 1:36:02,2 +26:57,2 +02:09,9
53 45 VANGIONI Graziano/BERTIN-MAURICE Kévin Renault Clio Rs F2 14 1:37:50,6 +28:45,6 +01:48,4
Clt Equipage Voiture Gr/Cl Temps Ecart 1er Ecart préc. Catégories
Commentaires: © PatricK Soft  
(Temps forfaitaires=couleur bleue)
Classés:53

Epreuve: Groupe: Catégorie:

 
Retour
Classement final provisoire